sensor_id;sensor_type;location;lat;lon;timestamp;P1;durP1;ratioP1;P2;durP2;ratioP2
73693;SDS011;61997;53.974;11.670;2022-12-07T00:01:09;10.48;;;5.80;;
73693;SDS011;61997;53.974;11.670;2022-12-07T00:03:46;9.48;;;5.53;;
73693;SDS011;61997;53.974;11.670;2022-12-07T00:06:15;10.13;;;5.75;;
73693;SDS011;61997;53.974;11.670;2022-12-07T00:08:46;13.20;;;6.20;;
73693;SDS011;61997;53.974;11.670;2022-12-07T00:13:42;9.55;;;5.75;;
73693;SDS011;61997;53.974;11.670;2022-12-07T00:16:10;9.30;;;6.07;;
73693;SDS011;61997;53.974;11.670;2022-12-07T00:18:36;8.98;;;5.55;;
73693;SDS011;61997;53.974;11.670;2022-12-07T00:21:02;9.50;;;5.28;;
73693;SDS011;61997;53.974;11.670;2022-12-07T00:23:29;10.90;;;6.38;;
73693;SDS011;61997;53.974;11.670;2022-12-07T00:25:55;8.85;;;5.85;;
73693;SDS011;61997;53.974;11.670;2022-12-07T00:28:20;12.38;;;6.28;;
73693;SDS011;61997;53.974;11.670;2022-12-07T00:30:45;12.80;;;6.43;;
73693;SDS011;61997;53.974;11.670;2022-12-07T00:33:11;9.40;;;5.63;;
73693;SDS011;61997;53.974;11.670;2022-12-07T00:35:37;10.38;;;6.18;;
73693;SDS011;61997;53.974;11.670;2022-12-07T00:38:03;9.20;;;5.97;;
73693;SDS011;61997;53.974;11.670;2022-12-07T00:40:29;9.50;;;5.93;;
73693;SDS011;61997;53.974;11.670;2022-12-07T00:42:55;10.30;;;5.07;;
73693;SDS011;61997;53.974;11.670;2022-12-07T00:45:22;8.73;;;5.53;;
73693;SDS011;61997;53.974;11.670;2022-12-07T00:47:48;10.65;;;5.90;;
73693;SDS011;61997;53.974;11.670;2022-12-07T00:50:15;8.65;;;5.65;;
73693;SDS011;61997;53.974;11.670;2022-12-07T00:52:40;10.13;;;5.90;;
73693;SDS011;61997;53.974;11.670;2022-12-07T00:55:06;11.35;;;5.78;;
73693;SDS011;61997;53.974;11.670;2022-12-07T00:57:32;9.80;;;5.93;;
73693;SDS011;61997;53.974;11.670;2022-12-07T00:59:57;9.98;;;5.82;;
73693;SDS011;61997;53.974;11.670;2022-12-07T01:02:23;9.35;;;5.22;;
73693;SDS011;61997;53.974;11.670;2022-12-07T01:04:48;9.50;;;5.75;;
73693;SDS011;61997;53.974;11.670;2022-12-07T01:07:14;9.60;;;5.38;;
73693;SDS011;61997;53.974;11.670;2022-12-07T01:09:40;8.13;;;5.22;;
73693;SDS011;61997;53.974;11.670;2022-12-07T01:12:06;9.07;;;5.40;;
73693;SDS011;61997;53.974;11.670;2022-12-07T01:14:32;10.35;;;5.22;;
73693;SDS011;61997;53.974;11.670;2022-12-07T01:16:58;8.90;;;5.53;;
73693;SDS011;61997;53.974;11.670;2022-12-07T01:19:24;10.02;;;5.13;;
73693;SDS011;61997;53.974;11.670;2022-12-07T01:21:49;9.75;;;4.85;;
73693;SDS011;61997;53.974;11.670;2022-12-07T01:24:15;8.55;;;5.32;;
73693;SDS011;61997;53.974;11.670;2022-12-07T01:26:40;9.63;;;5.40;;
73693;SDS011;61997;53.974;11.670;2022-12-07T01:29:06;9.15;;;5.38;;
73693;SDS011;61997;53.974;11.670;2022-12-07T01:31:31;10.45;;;5.15;;
73693;SDS011;61997;53.974;11.670;2022-12-07T01:33:57;9.27;;;4.90;;
73693;SDS011;61997;53.974;11.670;2022-12-07T01:36:24;9.15;;;4.97;;
73693;SDS011;61997;53.974;11.670;2022-12-07T01:38:58;10.15;;;5.22;;
73693;SDS011;61997;53.974;11.670;2022-12-07T01:41:25;9.15;;;5.15;;
73693;SDS011;61997;53.974;11.670;2022-12-07T01:47:02;9.30;;;4.97;;
73693;SDS011;61997;53.974;11.670;2022-12-07T01:49:38;10.63;;;5.72;;
73693;SDS011;61997;53.974;11.670;2022-12-07T01:54:49;9.38;;;4.90;;
73693;SDS011;61997;53.974;11.670;2022-12-07T01:57:17;8.60;;;4.88;;
73693;SDS011;61997;53.974;11.670;2022-12-07T01:59:44;9.00;;;5.40;;
73693;SDS011;61997;53.974;11.670;2022-12-07T02:02:13;7.90;;;4.97;;
73693;SDS011;61997;53.974;11.670;2022-12-07T02:04:48;6.40;;;4.15;;
73693;SDS011;61997;53.974;11.670;2022-12-07T02:07:14;9.30;;;4.95;;
73693;SDS011;61997;53.974;11.670;2022-12-07T02:09:39;5.35;;;4.05;;
73693;SDS011;61997;53.974;11.670;2022-12-07T02:12:05;7.63;;;3.88;;
73693;SDS011;61997;53.974;11.670;2022-12-07T02:14:30;7.68;;;4.15;;
73693;SDS011;61997;53.974;11.670;2022-12-07T02:28:25;7.18;;;4.40;;
73693;SDS011;61997;53.974;11.670;2022-12-07T02:30:51;9.43;;;4.50;;
73693;SDS011;61997;53.974;11.670;2022-12-07T02:33:28;7.47;;;4.10;;
73693;SDS011;61997;53.974;11.670;2022-12-07T02:36:06;8.18;;;3.95;;
73693;SDS011;61997;53.974;11.670;2022-12-07T02:38:48;7.65;;;4.03;;
73693;SDS011;61997;53.974;11.670;2022-12-07T02:41:29;6.90;;;4.07;;
73693;SDS011;61997;53.974;11.670;2022-12-07T02:43:58;6.70;;;3.70;;
73693;SDS011;61997;53.974;11.670;2022-12-07T02:46:30;7.53;;;4.15;;
73693;SDS011;61997;53.974;11.670;2022-12-07T02:48:58;5.82;;;3.67;;
73693;SDS011;61997;53.974;11.670;2022-12-07T02:51:25;7.25;;;4.25;;
73693;SDS011;61997;53.974;11.670;2022-12-07T02:53:50;7.20;;;3.72;;
73693;SDS011;61997;53.974;11.670;2022-12-07T03:01:41;6.40;;;4.03;;
73693;SDS011;61997;53.974;11.670;2022-12-07T03:15:54;6.63;;;3.75;;
73693;SDS011;61997;53.974;11.670;2022-12-07T03:18:24;5.07;;;3.55;;
73693;SDS011;61997;53.974;11.670;2022-12-07T03:20:51;6.90;;;3.85;;
73693;SDS011;61997;53.974;11.670;2022-12-07T03:23:18;5.03;;;3.13;;
73693;SDS011;61997;53.974;11.670;2022-12-07T03:25:47;6.63;;;3.63;;
73693;SDS011;61997;53.974;11.670;2022-12-07T03:28:16;5.65;;;3.80;;
73693;SDS011;61997;53.974;11.670;2022-12-07T03:30:47;5.72;;;3.30;;
73693;SDS011;61997;53.974;11.670;2022-12-07T03:33:32;6.18;;;3.67;;
73693;SDS011;61997;53.974;11.670;2022-12-07T03:36:27;6.97;;;3.42;;
73693;SDS011;61997;53.974;11.670;2022-12-07T03:41:43;6.68;;;3.53;;
73693;SDS011;61997;53.974;11.670;2022-12-07T03:44:09;4.22;;;3.15;;
73693;SDS011;61997;53.974;11.670;2022-12-07T03:49:26;6.80;;;3.15;;
73693;SDS011;61997;53.974;11.670;2022-12-07T03:52:06;5.20;;;2.63;;
73693;SDS011;61997;53.974;11.670;2022-12-07T03:57:07;6.47;;;3.40;;
73693;SDS011;61997;53.974;11.670;2022-12-07T03:59:33;4.10;;;2.75;;
73693;SDS011;61997;53.974;11.670;2022-12-07T04:02:03;5.10;;;3.08;;
73693;SDS011;61997;53.974;11.670;2022-12-07T04:04:29;5.68;;;3.22;;
73693;SDS011;61997;53.974;11.670;2022-12-07T04:06:55;5.72;;;3.15;;
73693;SDS011;61997;53.974;11.670;2022-12-07T04:09:20;7.35;;;3.10;;
73693;SDS011;61997;53.974;11.670;2022-12-07T04:11:46;6.18;;;3.22;;
73693;SDS011;61997;53.974;11.670;2022-12-07T04:14:11;4.63;;;3.17;;
73693;SDS011;61997;53.974;11.670;2022-12-07T04:16:44;4.68;;;3.20;;
73693;SDS011;61997;53.974;11.670;2022-12-07T04:19:22;4.50;;;2.80;;
73693;SDS011;61997;53.974;11.670;2022-12-07T04:21:54;5.88;;;3.25;;
73693;SDS011;61997;53.974;11.670;2022-12-07T04:24:21;4.22;;;2.78;;
73693;SDS011;61997;53.974;11.670;2022-12-07T04:26:46;4.30;;;2.63;;
73693;SDS011;61997;53.974;11.670;2022-12-07T04:29:12;5.60;;;2.95;;
73693;SDS011;61997;53.974;11.670;2022-12-07T04:31:39;5.40;;;2.60;;
73693;SDS011;61997;53.974;11.670;2022-12-07T04:34:05;3.65;;;2.67;;
73693;SDS011;61997;53.974;11.670;2022-12-07T04:36:31;5.38;;;3.10;;
73693;SDS011;61997;53.974;11.670;2022-12-07T04:38:57;6.07;;;3.22;;
73693;SDS011;61997;53.974;11.670;2022-12-07T04:41:22;4.57;;;2.70;;
73693;SDS011;61997;53.974;11.670;2022-12-07T04:43:52;5.90;;;2.70;;
73693;SDS011;61997;53.974;11.670;2022-12-07T04:46:22;4.07;;;2.83;;
73693;SDS011;61997;53.974;11.670;2022-12-07T04:48:48;5.00;;;2.90;;
73693;SDS011;61997;53.974;11.670;2022-12-07T04:51:15;4.65;;;2.47;;
73693;SDS011;61997;53.974;11.670;2022-12-07T04:53:45;6.55;;;2.90;;
73693;SDS011;61997;53.974;11.670;2022-12-07T04:56:11;4.05;;;2.63;;
73693;SDS011;61997;53.974;11.670;2022-12-07T04:58:36;4.88;;;2.63;;
73693;SDS011;61997;53.974;11.670;2022-12-07T05:01:02;6.00;;;2.83;;
73693;SDS011;61997;53.974;11.670;2022-12-07T05:03:27;4.18;;;2.70;;
73693;SDS011;61997;53.974;11.670;2022-12-07T05:05:53;4.25;;;2.35;;
73693;SDS011;61997;53.974;11.670;2022-12-07T05:08:18;4.88;;;2.67;;
73693;SDS011;61997;53.974;11.670;2022-12-07T05:10:44;4.03;;;2.15;;
73693;SDS011;61997;53.974;11.670;2022-12-07T05:13:09;4.35;;;2.40;;
73693;SDS011;61997;53.974;11.670;2022-12-07T05:15:34;3.28;;;2.25;;
73693;SDS011;61997;53.974;11.670;2022-12-07T05:18:00;4.15;;;2.50;;
73693;SDS011;61997;53.974;11.670;2022-12-07T05:20:25;5.72;;;2.40;;
73693;SDS011;61997;53.974;11.670;2022-12-07T05:22:50;5.15;;;2.90;;
73693;SDS011;61997;53.974;11.670;2022-12-07T05:25:16;3.33;;;2.15;;
73693;SDS011;61997;53.974;11.670;2022-12-07T05:27:41;3.30;;;2.30;;
73693;SDS011;61997;53.974;11.670;2022-12-07T05:30:07;3.40;;;2.35;;
73693;SDS011;61997;53.974;11.670;2022-12-07T05:32:33;3.33;;;1.95;;
73693;SDS011;61997;53.974;11.670;2022-12-07T05:34:58;5.25;;;2.15;;
73693;SDS011;61997;53.974;11.670;2022-12-07T05:37:23;4.53;;;2.05;;
73693;SDS011;61997;53.974;11.670;2022-12-07T05:39:49;4.40;;;2.55;;
73693;SDS011;61997;53.974;11.670;2022-12-07T05:42:14;3.95;;;2.40;;
73693;SDS011;61997;53.974;11.670;2022-12-07T05:44:40;3.92;;;1.77;;
73693;SDS011;61997;53.974;11.670;2022-12-07T05:47:06;3.70;;;2.25;;
73693;SDS011;61997;53.974;11.670;2022-12-07T05:49:32;3.50;;;2.17;;
73693;SDS011;61997;53.974;11.670;2022-12-07T05:51:58;4.03;;;1.77;;
73693;SDS011;61997;53.974;11.670;2022-12-07T05:54:23;4.03;;;2.40;;
73693;SDS011;61997;53.974;11.670;2022-12-07T05:56:49;3.25;;;2.40;;
73693;SDS011;61997;53.974;11.670;2022-12-07T05:59:15;4.03;;;2.20;;
73693;SDS011;61997;53.974;11.670;2022-12-07T06:01:51;3.95;;;1.90;;
73693;SDS011;61997;53.974;11.670;2022-12-07T06:04:28;2.47;;;2.08;;
73693;SDS011;61997;53.974;11.670;2022-12-07T06:06:55;4.20;;;2.20;;
73693;SDS011;61997;53.974;11.670;2022-12-07T06:09:21;3.17;;;2.10;;
73693;SDS011;61997;53.974;11.670;2022-12-07T06:11:47;3.28;;;1.92;;
73693;SDS011;61997;53.974;11.670;2022-12-07T06:14:46;2.60;;;1.75;;
73693;SDS011;61997;53.974;11.670;2022-12-07T06:17:11;3.25;;;1.80;;
73693;SDS011;61997;53.974;11.670;2022-12-07T06:19:37;3.65;;;1.83;;
73693;SDS011;61997;53.974;11.670;2022-12-07T06:22:03;3.00;;;1.98;;
73693;SDS011;61997;53.974;11.670;2022-12-07T06:24:29;3.17;;;1.85;;
73693;SDS011;61997;53.974;11.670;2022-12-07T06:26:55;2.75;;;1.50;;
73693;SDS011;61997;53.974;11.670;2022-12-07T06:29:20;3.42;;;1.83;;
73693;SDS011;61997;53.974;11.670;2022-12-07T06:31:46;3.85;;;1.80;;
73693;SDS011;61997;53.974;11.670;2022-12-07T06:34:13;3.00;;;1.80;;
73693;SDS011;61997;53.974;11.670;2022-12-07T06:36:40;2.20;;;1.67;;
73693;SDS011;61997;53.974;11.670;2022-12-07T06:39:05;3.00;;;1.73;;
73693;SDS011;61997;53.974;11.670;2022-12-07T06:41:31;3.08;;;1.80;;
73693;SDS011;61997;53.974;11.670;2022-12-07T06:43:57;2.65;;;1.85;;
73693;SDS011;61997;53.974;11.670;2022-12-07T06:46:22;2.72;;;1.33;;
73693;SDS011;61997;53.974;11.670;2022-12-07T06:48:48;2.97;;;1.60;;
73693;SDS011;61997;53.974;11.670;2022-12-07T06:51:13;3.80;;;1.67;;
73693;SDS011;61997;53.974;11.670;2022-12-07T06:53:39;3.38;;;1.40;;
73693;SDS011;61997;53.974;11.670;2022-12-07T06:56:04;2.42;;;1.50;;
73693;SDS011;61997;53.974;11.670;2022-12-07T06:58:30;3.13;;;1.88;;
73693;SDS011;61997;53.974;11.670;2022-12-07T07:00:55;2.95;;;1.40;;
73693;SDS011;61997;53.974;11.670;2022-12-07T07:03:21;2.55;;;1.55;;
73693;SDS011;61997;53.974;11.670;2022-12-07T07:05:46;2.67;;;1.80;;
73693;SDS011;61997;53.974;11.670;2022-12-07T07:08:12;2.65;;;1.30;;
73693;SDS011;61997;53.974;11.670;2022-12-07T07:10:38;2.30;;;1.60;;
73693;SDS011;61997;53.974;11.670;2022-12-07T07:13:03;2.65;;;1.15;;
73693;SDS011;61997;53.974;11.670;2022-12-07T07:15:30;1.75;;;1.30;;
73693;SDS011;61997;53.974;11.670;2022-12-07T07:17:56;2.08;;;1.15;;
73693;SDS011;61997;53.974;11.670;2022-12-07T07:20:21;2.63;;;1.33;;
73693;SDS011;61997;53.974;11.670;2022-12-07T07:22:47;1.60;;;1.10;;
73693;SDS011;61997;53.974;11.670;2022-12-07T07:25:13;2.42;;;1.55;;
73693;SDS011;61997;53.974;11.670;2022-12-07T07:27:38;2.00;;;1.67;;
73693;SDS011;61997;53.974;11.670;2022-12-07T07:30:04;2.60;;;1.40;;
73693;SDS011;61997;53.974;11.670;2022-12-07T07:32:30;2.97;;;1.73;;
73693;SDS011;61997;53.974;11.670;2022-12-07T07:34:55;2.30;;;1.15;;
73693;SDS011;61997;53.974;11.670;2022-12-07T07:37:21;2.17;;;1.15;;
73693;SDS011;61997;53.974;11.670;2022-12-07T07:39:46;2.47;;;1.45;;
73693;SDS011;61997;53.974;11.670;2022-12-07T07:42:12;2.08;;;1.40;;
73693;SDS011;61997;53.974;11.670;2022-12-07T07:44:37;2.38;;;1.13;;
73693;SDS011;61997;53.974;11.670;2022-12-07T07:47:02;1.98;;;1.08;;
73693;SDS011;61997;53.974;11.670;2022-12-07T07:49:28;2.95;;;1.42;;
73693;SDS011;61997;53.974;11.670;2022-12-07T07:51:54;1.77;;;1.13;;
73693;SDS011;61997;53.974;11.670;2022-12-07T07:54:19;2.67;;;1.30;;
73693;SDS011;61997;53.974;11.670;2022-12-07T07:56:44;2.15;;;1.17;;
73693;SDS011;61997;53.974;11.670;2022-12-07T07:59:10;1.73;;;0.95;;
73693;SDS011;61997;53.974;11.670;2022-12-07T08:01:35;2.17;;;1.10;;
73693;SDS011;61997;53.974;11.670;2022-12-07T08:04:00;2.35;;;1.00;;
73693;SDS011;61997;53.974;11.670;2022-12-07T08:06:26;1.63;;;0.95;;
73693;SDS011;61997;53.974;11.670;2022-12-07T08:08:51;2.00;;;1.30;;
73693;SDS011;61997;53.974;11.670;2022-12-07T08:11:17;1.90;;;1.10;;
73693;SDS011;61997;53.974;11.670;2022-12-07T08:13:47;2.28;;;1.20;;
73693;SDS011;61997;53.974;11.670;2022-12-07T08:16:13;1.60;;;1.10;;
73693;SDS011;61997;53.974;11.670;2022-12-07T08:18:40;1.50;;;1.00;;
73693;SDS011;61997;53.974;11.670;2022-12-07T08:21:09;1.70;;;1.10;;
73693;SDS011;61997;53.974;11.670;2022-12-07T08:23:37;2.45;;;1.20;;
73693;SDS011;61997;53.974;11.670;2022-12-07T08:26:03;2.35;;;1.10;;
73693;SDS011;61997;53.974;11.670;2022-12-07T08:28:30;1.95;;;1.10;;
73693;SDS011;61997;53.974;11.670;2022-12-07T08:31:02;2.00;;;1.10;;
73693;SDS011;61997;53.974;11.670;2022-12-07T08:33:29;2.17;;;1.00;;
73693;SDS011;61997;53.974;11.670;2022-12-07T08:35:54;1.92;;;1.10;;
73693;SDS011;61997;53.974;11.670;2022-12-07T08:38:20;2.53;;;1.00;;
73693;SDS011;61997;53.974;11.670;2022-12-07T08:40:53;1.70;;;1.00;;
73693;SDS011;61997;53.974;11.670;2022-12-07T08:43:19;1.60;;;0.82;;
73693;SDS011;61997;53.974;11.670;2022-12-07T08:45:45;1.75;;;0.90;;
73693;SDS011;61997;53.974;11.670;2022-12-07T08:48:12;2.17;;;1.20;;
73693;SDS011;61997;53.974;11.670;2022-12-07T08:50:39;1.85;;;1.08;;
73693;SDS011;61997;53.974;11.670;2022-12-07T08:53:04;1.98;;;1.00;;
73693;SDS011;61997;53.974;11.670;2022-12-07T08:55:31;1.67;;;1.10;;
73693;SDS011;61997;53.974;11.670;2022-12-07T08:57:57;2.15;;;1.05;;
73693;SDS011;61997;53.974;11.670;2022-12-07T09:00:23;1.55;;;1.08;;
73693;SDS011;61997;53.974;11.670;2022-12-07T09:02:49;1.42;;;0.85;;
73693;SDS011;61997;53.974;11.670;2022-12-07T09:05:14;2.13;;;1.17;;
73693;SDS011;61997;53.974;11.670;2022-12-07T09:07:40;2.53;;;1.25;;
73693;SDS011;61997;53.974;11.670;2022-12-07T09:10:07;1.23;;;0.90;;
73693;SDS011;61997;53.974;11.670;2022-12-07T09:12:32;1.85;;;1.10;;
73693;SDS011;61997;53.974;11.670;2022-12-07T09:14:58;2.88;;;1.02;;
73693;SDS011;61997;53.974;11.670;2022-12-07T09:17:25;1.92;;;0.90;;
73693;SDS011;61997;53.974;11.670;2022-12-07T09:19:50;1.40;;;1.00;;
73693;SDS011;61997;53.974;11.670;2022-12-07T09:22:16;1.70;;;0.90;;
73693;SDS011;61997;53.974;11.670;2022-12-07T09:24:41;2.20;;;1.13;;
73693;SDS011;61997;53.974;11.670;2022-12-07T09:27:07;2.00;;;1.10;;
73693;SDS011;61997;53.974;11.670;2022-12-07T09:29:32;3.55;;;1.10;;
73693;SDS011;61997;53.974;11.670;2022-12-07T09:31:57;1.35;;;0.90;;
73693;SDS011;61997;53.974;11.670;2022-12-07T09:34:23;1.90;;;1.23;;
73693;SDS011;61997;53.974;11.670;2022-12-07T09:36:48;2.97;;;1.45;;
73693;SDS011;61997;53.974;11.670;2022-12-07T09:39:14;3.42;;;1.13;;
73693;SDS011;61997;53.974;11.670;2022-12-07T09:41:39;2.20;;;1.35;;
73693;SDS011;61997;53.974;11.670;2022-12-07T09:44:07;4.63;;;1.67;;
73693;SDS011;61997;53.974;11.670;2022-12-07T09:46:36;2.17;;;1.25;;
73693;SDS011;61997;53.974;11.670;2022-12-07T09:49:04;2.00;;;1.17;;
73693;SDS011;61997;53.974;11.670;2022-12-07T09:51:30;2.17;;;1.35;;
73693;SDS011;61997;53.974;11.670;2022-12-07T09:53:56;2.47;;;1.58;;
73693;SDS011;61997;53.974;11.670;2022-12-07T09:56:23;2.05;;;1.20;;
73693;SDS011;61997;53.974;11.670;2022-12-07T09:58:49;5.30;;;1.88;;
73693;SDS011;61997;53.974;11.670;2022-12-07T10:01:19;3.40;;;1.67;;
73693;SDS011;61997;53.974;11.670;2022-12-07T10:03:59;3.08;;;1.30;;
73693;SDS011;61997;53.974;11.670;2022-12-07T10:06:30;2.60;;;1.40;;
73693;SDS011;61997;53.974;11.670;2022-12-07T10:08:55;4.18;;;1.52;;
73693;SDS011;61997;53.974;11.670;2022-12-07T10:11:21;3.30;;;1.98;;
73693;SDS011;61997;53.974;11.670;2022-12-07T10:13:47;3.03;;;1.88;;
73693;SDS011;61997;53.974;11.670;2022-12-07T10:19:19;2.80;;;1.70;;
73693;SDS011;61997;53.974;11.670;2022-12-07T10:24:37;3.60;;;2.08;;
73693;SDS011;61997;53.974;11.670;2022-12-07T10:30:02;3.42;;;1.88;;
73693;SDS011;61997;53.974;11.670;2022-12-07T10:32:34;3.63;;;2.85;;
73693;SDS011;61997;53.974;11.670;2022-12-07T10:37:46;4.95;;;2.88;;
73693;SDS011;61997;53.974;11.670;2022-12-07T10:40:26;4.47;;;2.47;;
73693;SDS011;61997;53.974;11.670;2022-12-07T10:43:03;5.90;;;2.90;;
73693;SDS011;61997;53.974;11.670;2022-12-07T10:45:30;5.20;;;2.70;;
73693;SDS011;61997;53.974;11.670;2022-12-07T10:47:59;6.43;;;3.05;;
73693;SDS011;61997;53.974;11.670;2022-12-07T10:53:09;6.68;;;2.53;;
73693;SDS011;61997;53.974;11.670;2022-12-07T11:06:51;7.45;;;3.78;;
73693;SDS011;61997;53.974;11.670;2022-12-07T11:09:30;8.55;;;5.07;;
73693;SDS011;61997;53.974;11.670;2022-12-07T11:12:11;8.80;;;4.72;;
73693;SDS011;61997;53.974;11.670;2022-12-07T11:20:29;8.20;;;4.85;;
73693;SDS011;61997;53.974;11.670;2022-12-07T11:23:16;10.18;;;4.53;;
73693;SDS011;61997;53.974;11.670;2022-12-07T11:37:02;10.63;;;4.88;;
73693;SDS011;61997;53.974;11.670;2022-12-07T11:39:44;10.15;;;5.15;;
73693;SDS011;61997;53.974;11.670;2022-12-07T11:42:16;10.95;;;5.13;;
73693;SDS011;61997;53.974;11.670;2022-12-07T11:44:53;10.95;;;4.80;;
73693;SDS011;61997;53.974;11.670;2022-12-07T11:52:58;9.25;;;4.60;;
73693;SDS011;61997;53.974;11.670;2022-12-07T11:56:00;10.93;;;4.53;;
73693;SDS011;61997;53.974;11.670;2022-12-07T12:04:14;9.77;;;4.70;;
73693;SDS011;61997;53.974;11.670;2022-12-07T12:06:34;9.60;;;4.70;;
73693;SDS011;61997;53.974;11.670;2022-12-07T12:11:53;21.05;;;9.02;;
73693;SDS011;61997;53.974;11.670;2022-12-07T12:20:29;24.17;;;12.93;;
73693;SDS011;61997;53.974;11.670;2022-12-07T12:23:17;20.88;;;13.20;;
73693;SDS011;61997;53.974;11.670;2022-12-07T12:25:54;21.58;;;12.82;;
73693;SDS011;61997;53.974;11.670;2022-12-07T12:31:05;26.42;;;14.48;;
73693;SDS011;61997;53.974;11.670;2022-12-07T12:34:00;26.00;;;14.60;;
73693;SDS011;61997;53.974;11.670;2022-12-07T12:36:43;27.95;;;15.07;;
73693;SDS011;61997;53.974;11.670;2022-12-07T12:39:11;27.60;;;16.67;;
73693;SDS011;61997;53.974;11.670;2022-12-07T12:51:46;30.98;;;16.23;;
73693;SDS011;61997;53.974;11.670;2022-12-07T12:54:21;27.88;;;15.40;;
73693;SDS011;61997;53.974;11.670;2022-12-07T12:56:49;24.52;;;14.70;;
73693;SDS011;61997;53.974;11.670;2022-12-07T13:10:20;31.17;;;14.77;;
73693;SDS011;61997;53.974;11.670;2022-12-07T13:15:35;27.30;;;14.95;;
73693;SDS011;61997;53.974;11.670;2022-12-07T13:20:46;27.70;;;15.73;;
73693;SDS011;61997;53.974;11.670;2022-12-07T13:23:16;31.17;;;13.95;;
73693;SDS011;61997;53.974;11.670;2022-12-07T13:28:33;30.77;;;16.48;;
73693;SDS011;61997;53.974;11.670;2022-12-07T13:33:38;31.75;;;15.70;;
73693;SDS011;61997;53.974;11.670;2022-12-07T13:36:03;25.85;;;14.10;;
73693;SDS011;61997;53.974;11.670;2022-12-07T13:38:32;31.63;;;15.90;;
73693;SDS011;61997;53.974;11.670;2022-12-07T13:41:04;29.10;;;15.50;;
73693;SDS011;61997;53.974;11.670;2022-12-07T13:43:48;29.52;;;15.20;;
73693;SDS011;61997;53.974;11.670;2022-12-07T13:46:21;26.23;;;15.43;;
73693;SDS011;61997;53.974;11.670;2022-12-07T13:48:55;28.33;;;15.20;;
73693;SDS011;61997;53.974;11.670;2022-12-07T13:51:27;31.00;;;14.32;;
73693;SDS011;61997;53.974;11.670;2022-12-07T13:53:59;30.17;;;14.63;;
73693;SDS011;61997;53.974;11.670;2022-12-07T13:56:28;26.13;;;13.05;;
73693;SDS011;61997;53.974;11.670;2022-12-07T13:58:58;24.67;;;13.07;;
73693;SDS011;61997;53.974;11.670;2022-12-07T14:01:24;25.38;;;14.15;;
73693;SDS011;61997;53.974;11.670;2022-12-07T14:03:53;25.77;;;13.23;;
73693;SDS011;61997;53.974;11.670;2022-12-07T14:06:26;27.48;;;13.60;;
73693;SDS011;61997;53.974;11.670;2022-12-07T14:09:09;25.77;;;13.32;;
73693;SDS011;61997;53.974;11.670;2022-12-07T14:11:42;27.50;;;12.73;;
73693;SDS011;61997;53.974;11.670;2022-12-07T14:14:13;24.92;;;11.52;;
73693;SDS011;61997;53.974;11.670;2022-12-07T14:16:40;23.30;;;11.70;;
73693;SDS011;61997;53.974;11.670;2022-12-07T14:22:08;26.38;;;11.52;;
73693;SDS011;61997;53.974;11.670;2022-12-07T14:24:50;20.60;;;10.70;;
73693;SDS011;61997;53.974;11.670;2022-12-07T14:27:19;22.02;;;11.38;;
73693;SDS011;61997;53.974;11.670;2022-12-07T14:29:46;22.15;;;10.77;;
73693;SDS011;61997;53.974;11.670;2022-12-07T14:32:19;20.65;;;11.02;;
73693;SDS011;61997;53.974;11.670;2022-12-07T14:35:02;24.55;;;10.80;;
73693;SDS011;61997;53.974;11.670;2022-12-07T14:39:58;16.10;;;9.35;;
73693;SDS011;61997;53.974;11.670;2022-12-07T14:42:24;20.55;;;10.75;;
73693;SDS011;61997;53.974;11.670;2022-12-07T14:44:52;20.33;;;10.65;;
73693;SDS011;61997;53.974;11.670;2022-12-07T14:47:17;19.75;;;9.25;;
73693;SDS011;61997;53.974;11.670;2022-12-07T14:49:43;16.30;;;8.82;;
73693;SDS011;61997;53.974;11.670;2022-12-07T14:52:15;17.35;;;8.80;;
73693;SDS011;61997;53.974;11.670;2022-12-07T14:54:43;20.17;;;8.95;;
73693;SDS011;61997;53.974;11.670;2022-12-07T14:57:09;16.45;;;9.43;;
73693;SDS011;61997;53.974;11.670;2022-12-07T14:59:35;15.52;;;8.30;;
73693;SDS011;61997;53.974;11.670;2022-12-07T15:02:00;13.43;;;8.63;;
73693;SDS011;61997;53.974;11.670;2022-12-07T15:04:26;18.80;;;8.50;;
73693;SDS011;61997;53.974;11.670;2022-12-07T15:06:58;13.30;;;7.60;;
73693;SDS011;61997;53.974;11.670;2022-12-07T15:09:25;15.48;;;7.85;;
73693;SDS011;61997;53.974;11.670;2022-12-07T15:11:51;15.52;;;7.25;;
73693;SDS011;61997;53.974;11.670;2022-12-07T15:14:17;15.68;;;8.10;;
73693;SDS011;61997;53.974;11.670;2022-12-07T15:16:42;14.57;;;7.47;;
73693;SDS011;61997;53.974;11.670;2022-12-07T15:19:15;15.68;;;7.93;;
73693;SDS011;61997;53.974;11.670;2022-12-07T15:21:47;18.08;;;7.40;;
73693;SDS011;61997;53.974;11.670;2022-12-07T15:24:13;15.82;;;7.68;;
73693;SDS011;61997;53.974;11.670;2022-12-07T15:26:39;11.50;;;6.93;;
73693;SDS011;61997;53.974;11.670;2022-12-07T15:29:04;12.15;;;6.93;;
73693;SDS011;61997;53.974;11.670;2022-12-07T15:31:31;12.32;;;7.05;;
73693;SDS011;61997;53.974;11.670;2022-12-07T15:33:57;11.70;;;6.13;;
73693;SDS011;61997;53.974;11.670;2022-12-07T15:36:23;12.57;;;6.05;;
73693;SDS011;61997;53.974;11.670;2022-12-07T15:38:50;11.45;;;5.45;;
73693;SDS011;61997;53.974;11.670;2022-12-07T15:41:16;9.30;;;5.45;;
73693;SDS011;61997;53.974;11.670;2022-12-07T15:43:41;11.38;;;5.72;;
73693;SDS011;61997;53.974;11.670;2022-12-07T15:46:29;9.68;;;5.13;;
73693;SDS011;61997;53.974;11.670;2022-12-07T15:48:58;10.32;;;5.53;;
73693;SDS011;61997;53.974;11.670;2022-12-07T15:51:23;10.05;;;5.80;;
73693;SDS011;61997;53.974;11.670;2022-12-07T15:53:49;12.48;;;5.63;;
73693;SDS011;61997;53.974;11.670;2022-12-07T15:56:14;10.40;;;5.05;;
73693;SDS011;61997;53.974;11.670;2022-12-07T15:58:39;9.73;;;5.15;;
73693;SDS011;61997;53.974;11.670;2022-12-07T16:01:15;10.80;;;5.78;;
73693;SDS011;61997;53.974;11.670;2022-12-07T16:03:42;12.45;;;5.45;;
73693;SDS011;61997;53.974;11.670;2022-12-07T16:06:09;11.40;;;5.00;;
73693;SDS011;61997;53.974;11.670;2022-12-07T16:08:34;9.57;;;5.13;;
73693;SDS011;61997;53.974;11.670;2022-12-07T16:10:59;8.48;;;5.68;;
73693;SDS011;61997;53.974;11.670;2022-12-07T16:13:28;7.25;;;4.32;;
73693;SDS011;61997;53.974;11.670;2022-12-07T16:15:54;10.70;;;5.53;;
73693;SDS011;61997;53.974;11.670;2022-12-07T16:18:19;9.85;;;4.78;;
73693;SDS011;61997;53.974;11.670;2022-12-07T16:20:47;8.88;;;4.90;;
73693;SDS011;61997;53.974;11.670;2022-12-07T16:23:13;11.02;;;4.95;;
73693;SDS011;61997;53.974;11.670;2022-12-07T16:25:38;10.35;;;4.30;;
73693;SDS011;61997;53.974;11.670;2022-12-07T16:28:04;9.45;;;4.03;;
73693;SDS011;61997;53.974;11.670;2022-12-07T16:30:29;9.63;;;4.57;;
73693;SDS011;61997;53.974;11.670;2022-12-07T16:32:55;9.55;;;4.30;;
73693;SDS011;61997;53.974;11.670;2022-12-07T16:35:20;7.90;;;3.88;;
73693;SDS011;61997;53.974;11.670;2022-12-07T16:37:45;9.63;;;4.82;;
73693;SDS011;61997;53.974;11.670;2022-12-07T16:40:11;9.57;;;4.45;;
73693;SDS011;61997;53.974;11.670;2022-12-07T16:42:37;11.73;;;4.82;;
73693;SDS011;61997;53.974;11.670;2022-12-07T16:45:02;10.95;;;5.55;;
73693;SDS011;61997;53.974;11.670;2022-12-07T16:47:28;8.57;;;5.20;;
73693;SDS011;61997;53.974;11.670;2022-12-07T16:49:54;11.00;;;5.55;;
73693;SDS011;61997;53.974;11.670;2022-12-07T16:52:20;13.77;;;5.97;;
73693;SDS011;61997;53.974;11.670;2022-12-07T16:54:46;10.13;;;5.25;;
73693;SDS011;61997;53.974;11.670;2022-12-07T16:57:12;11.55;;;5.97;;
73693;SDS011;61997;53.974;11.670;2022-12-07T16:59:37;13.13;;;7.10;;
73693;SDS011;61997;53.974;11.670;2022-12-07T17:02:02;15.55;;;6.15;;